sensor_id;sensor_type;location;lat;lon;timestamp;temperature;humidity
27795;DHT22;15176;50.844;4.412;2022-08-19T00:00:29;25.30;99.90
27795;DHT22;15176;50.844;4.412;2022-08-19T00:02:56;25.00;99.90
27795;DHT22;15176;50.844;4.412;2022-08-19T00:05:22;24.60;99.90
27795;DHT22;15176;50.844;4.412;2022-08-19T00:07:48;24.80;99.90
27795;DHT22;15176;50.844;4.412;2022-08-19T00:10:15;24.60;99.90
27795;DHT22;15176;50.844;4.412;2022-08-19T00:12:41;24.60;99.90
27795;DHT22;15176;50.844;4.412;2022-08-19T00:15:10;24.30;99.90
27795;DHT22;15176;50.844;4.412;2022-08-19T00:17:44;24.20;99.90
27795;DHT22;15176;50.844;4.412;2022-08-19T00:20:14;24.50;99.90
27795;DHT22;15176;50.844;4.412;2022-08-19T00:22:43;24.40;99.90
27795;DHT22;15176;50.844;4.412;2022-08-19T00:25:10;24.00;99.90
27795;DHT22;15176;50.844;4.412;2022-08-19T00:27:36;23.90;99.90
27795;DHT22;15176;50.844;4.412;2022-08-19T00:30:03;23.80;99.90
27795;DHT22;15176;50.844;4.412;2022-08-19T00:32:29;23.70;99.90
27795;DHT22;15176;50.844;4.412;2022-08-19T00:34:55;23.60;99.90
27795;DHT22;15176;50.844;4.412;2022-08-19T00:37:22;23.40;99.90
27795;DHT22;15176;50.844;4.412;2022-08-19T00:39:48;23.60;99.90
27795;DHT22;15176;50.844;4.412;2022-08-19T00:42:14;24.10;99.90
27795;DHT22;15176;50.844;4.412;2022-08-19T00:44:41;24.10;99.90
27795;DHT22;15176;50.844;4.412;2022-08-19T00:47:08;24.10;99.90
27795;DHT22;15176;50.844;4.412;2022-08-19T00:49:38;23.80;99.90
27795;DHT22;15176;50.844;4.412;2022-08-19T00:52:13;23.60;99.90
27795;DHT22;15176;50.844;4.412;2022-08-19T00:54:40;23.70;99.90
27795;DHT22;15176;50.844;4.412;2022-08-19T00:57:10;23.60;99.90
27795;DHT22;15176;50.844;4.412;2022-08-19T00:59:42;23.70;99.90
27795;DHT22;15176;50.844;4.412;2022-08-19T01:02:08;23.80;99.90
27795;DHT22;15176;50.844;4.412;2022-08-19T01:04:34;23.40;99.90
27795;DHT22;15176;50.844;4.412;2022-08-19T01:07:01;23.20;99.90
27795;DHT22;15176;50.844;4.412;2022-08-19T01:09:27;23.20;99.90
27795;DHT22;15176;50.844;4.412;2022-08-19T01:11:52;23.10;99.90
27795;DHT22;15176;50.844;4.412;2022-08-19T01:14:18;23.10;99.90
27795;DHT22;15176;50.844;4.412;2022-08-19T01:16:45;23.10;99.90
27795;DHT22;15176;50.844;4.412;2022-08-19T01:19:32;23.10;99.90
27795;DHT22;15176;50.844;4.412;2022-08-19T01:24:45;23.30;99.90
27795;DHT22;15176;50.844;4.412;2022-08-19T01:27:11;23.40;99.90
27795;DHT22;15176;50.844;4.412;2022-08-19T01:29:39;23.40;99.90
27795;DHT22;15176;50.844;4.412;2022-08-19T01:32:08;23.10;99.90
27795;DHT22;15176;50.844;4.412;2022-08-19T01:34:34;23.40;99.90
27795;DHT22;15176;50.844;4.412;2022-08-19T01:37:01;23.50;99.90
27795;DHT22;15176;50.844;4.412;2022-08-19T01:39:30;23.50;99.90
27795;DHT22;15176;50.844;4.412;2022-08-19T01:41:56;23.80;99.90
27795;DHT22;15176;50.844;4.412;2022-08-19T01:44:22;23.60;99.90
27795;DHT22;15176;50.844;4.412;2022-08-19T01:46:50;23.50;99.90
27795;DHT22;15176;50.844;4.412;2022-08-19T01:49:21;23.10;99.90
27795;DHT22;15176;50.844;4.412;2022-08-19T01:51:47;23.20;99.90
27795;DHT22;15176;50.844;4.412;2022-08-19T01:54:14;22.80;99.90
27795;DHT22;15176;50.844;4.412;2022-08-19T01:56:40;22.80;99.90
27795;DHT22;15176;50.844;4.412;2022-08-19T01:59:12;22.90;99.90
27795;DHT22;15176;50.844;4.412;2022-08-19T02:01:39;23.10;99.90
27795;DHT22;15176;50.844;4.412;2022-08-19T02:04:04;22.90;99.90
27795;DHT22;15176;50.844;4.412;2022-08-19T02:06:31;22.60;99.90
27795;DHT22;15176;50.844;4.412;2022-08-19T02:08:57;22.70;99.90
27795;DHT22;15176;50.844;4.412;2022-08-19T02:11:28;22.50;99.90
27795;DHT22;15176;50.844;4.412;2022-08-19T02:13:57;22.50;99.90
27795;DHT22;15176;50.844;4.412;2022-08-19T02:16:23;22.70;99.90
27795;DHT22;15176;50.844;4.412;2022-08-19T02:18:52;22.50;99.90
27795;DHT22;15176;50.844;4.412;2022-08-19T02:21:19;22.60;99.90
27795;DHT22;15176;50.844;4.412;2022-08-19T02:23:46;22.70;99.90
27795;DHT22;15176;50.844;4.412;2022-08-19T02:26:12;22.30;99.90
27795;DHT22;15176;50.844;4.412;2022-08-19T02:28:38;22.50;99.90
27795;DHT22;15176;50.844;4.412;2022-08-19T02:31:12;22.50;99.90
27795;DHT22;15176;50.844;4.412;2022-08-19T02:33:38;22.60;99.90
27795;DHT22;15176;50.844;4.412;2022-08-19T02:36:05;22.60;99.90
27795;DHT22;15176;50.844;4.412;2022-08-19T02:38:31;22.30;99.90
27795;DHT22;15176;50.844;4.412;2022-08-19T02:41:03;21.80;99.90
27795;DHT22;15176;50.844;4.412;2022-08-19T02:43:31;21.80;99.90
27795;DHT22;15176;50.844;4.412;2022-08-19T02:45:57;21.60;99.90
27795;DHT22;15176;50.844;4.412;2022-08-19T02:48:24;21.30;99.90
27795;DHT22;15176;50.844;4.412;2022-08-19T02:50:52;21.40;99.90
27795;DHT22;15176;50.844;4.412;2022-08-19T02:53:21;21.30;99.90
27795;DHT22;15176;50.844;4.412;2022-08-19T02:55:48;21.30;99.90
27795;DHT22;15176;50.844;4.412;2022-08-19T02:58:15;21.40;99.90
27795;DHT22;15176;50.844;4.412;2022-08-19T03:00:47;21.20;99.90
27795;DHT22;15176;50.844;4.412;2022-08-19T03:03:14;21.00;99.90
27795;DHT22;15176;50.844;4.412;2022-08-19T03:05:40;21.00;99.90
27795;DHT22;15176;50.844;4.412;2022-08-19T03:08:06;21.10;99.90
27795;DHT22;15176;50.844;4.412;2022-08-19T03:10:32;21.20;99.90
27795;DHT22;15176;50.844;4.412;2022-08-19T03:12:58;21.00;99.90
27795;DHT22;15176;50.844;4.412;2022-08-19T03:15:24;21.00;99.90
27795;DHT22;15176;50.844;4.412;2022-08-19T03:17:49;20.80;99.90
27795;DHT22;15176;50.844;4.412;2022-08-19T03:20:15;20.80;99.90
27795;DHT22;15176;50.844;4.412;2022-08-19T03:22:40;20.80;99.90
27795;DHT22;15176;50.844;4.412;2022-08-19T03:25:06;20.70;99.90
27795;DHT22;15176;50.844;4.412;2022-08-19T03:27:32;21.00;99.90
27795;DHT22;15176;50.844;4.412;2022-08-19T03:29:58;20.90;99.90
27795;DHT22;15176;50.844;4.412;2022-08-19T03:32:26;20.80;99.90
27795;DHT22;15176;50.844;4.412;2022-08-19T03:34:51;20.70;99.90
27795;DHT22;15176;50.844;4.412;2022-08-19T03:37:18;20.80;99.90
27795;DHT22;15176;50.844;4.412;2022-08-19T03:39:44;20.70;99.90
27795;DHT22;15176;50.844;4.412;2022-08-19T03:42:10;20.40;99.90
27795;DHT22;15176;50.844;4.412;2022-08-19T03:44:36;20.50;99.90
27795;DHT22;15176;50.844;4.412;2022-08-19T03:47:04;20.50;99.90
27795;DHT22;15176;50.844;4.412;2022-08-19T03:49:31;20.70;99.90
27795;DHT22;15176;50.844;4.412;2022-08-19T03:51:59;20.30;99.90
27795;DHT22;15176;50.844;4.412;2022-08-19T03:54:28;20.40;99.90
27795;DHT22;15176;50.844;4.412;2022-08-19T03:56:55;20.40;99.90
27795;DHT22;15176;50.844;4.412;2022-08-19T03:59:25;20.30;99.90
27795;DHT22;15176;50.844;4.412;2022-08-19T04:01:52;20.30;99.90
27795;DHT22;15176;50.844;4.412;2022-08-19T04:04:18;20.20;99.90
27795;DHT22;15176;50.844;4.412;2022-08-19T04:06:44;20.20;99.90
27795;DHT22;15176;50.844;4.412;2022-08-19T04:09:12;20.30;99.90
27795;DHT22;15176;50.844;4.412;2022-08-19T04:11:45;20.30;99.90
27795;DHT22;15176;50.844;4.412;2022-08-19T04:14:17;20.30;99.90
27795;DHT22;15176;50.844;4.412;2022-08-19T04:16:45;19.90;99.90
27795;DHT22;15176;50.844;4.412;2022-08-19T04:19:13;19.70;99.90
27795;DHT22;15176;50.844;4.412;2022-08-19T04:21:39;19.50;99.90
27795;DHT22;15176;50.844;4.412;2022-08-19T04:24:06;19.50;99.90
27795;DHT22;15176;50.844;4.412;2022-08-19T04:26:34;19.60;99.90
27795;DHT22;15176;50.844;4.412;2022-08-19T04:29:02;19.60;99.90
27795;DHT22;15176;50.844;4.412;2022-08-19T04:31:31;19.60;99.90
27795;DHT22;15176;50.844;4.412;2022-08-19T04:33:59;19.60;99.90
27795;DHT22;15176;50.844;4.412;2022-08-19T04:36:27;19.60;99.90
27795;DHT22;15176;50.844;4.412;2022-08-19T04:38:55;19.80;99.90
27795;DHT22;15176;50.844;4.412;2022-08-19T04:41:22;19.90;99.90
27795;DHT22;15176;50.844;4.412;2022-08-19T04:44:06;20.10;99.90
27795;DHT22;15176;50.844;4.412;2022-08-19T04:46:32;20.20;99.90
27795;DHT22;15176;50.844;4.412;2022-08-19T04:49:00;20.10;99.90
27795;DHT22;15176;50.844;4.412;2022-08-19T04:51:25;20.00;99.90
27795;DHT22;15176;50.844;4.412;2022-08-19T04:53:52;20.20;99.90
27795;DHT22;15176;50.844;4.412;2022-08-19T04:56:18;20.40;99.90
27795;DHT22;15176;50.844;4.412;2022-08-19T04:58:46;20.10;99.90
27795;DHT22;15176;50.844;4.412;2022-08-19T05:01:13;20.00;99.90
27795;DHT22;15176;50.844;4.412;2022-08-19T05:03:39;20.30;99.90
27795;DHT22;15176;50.844;4.412;2022-08-19T05:06:12;20.10;99.90
27795;DHT22;15176;50.844;4.412;2022-08-19T05:08:40;20.20;99.90
27795;DHT22;15176;50.844;4.412;2022-08-19T05:13:40;19.90;99.90
27795;DHT22;15176;50.844;4.412;2022-08-19T05:16:06;20.20;99.90
27795;DHT22;15176;50.844;4.412;2022-08-19T05:18:32;20.30;99.90
27795;DHT22;15176;50.844;4.412;2022-08-19T05:21:19;20.40;99.90
27795;DHT22;15176;50.844;4.412;2022-08-19T05:24:04;20.70;99.90
27795;DHT22;15176;50.844;4.412;2022-08-19T05:26:38;21.00;99.90
27795;DHT22;15176;50.844;4.412;2022-08-19T05:29:05;21.40;99.90
27795;DHT22;15176;50.844;4.412;2022-08-19T05:31:31;21.70;99.90
27795;DHT22;15176;50.844;4.412;2022-08-19T05:33:57;21.60;99.90
27795;DHT22;15176;50.844;4.412;2022-08-19T05:36:25;21.60;99.90
27795;DHT22;15176;50.844;4.412;2022-08-19T05:38:51;21.10;99.90
27795;DHT22;15176;50.844;4.412;2022-08-19T05:41:20;21.30;99.90
27795;DHT22;15176;50.844;4.412;2022-08-19T05:43:46;21.70;99.90
27795;DHT22;15176;50.844;4.412;2022-08-19T05:46:18;21.90;99.90
27795;DHT22;15176;50.844;4.412;2022-08-19T05:48:44;21.70;99.90
27795;DHT22;15176;50.844;4.412;2022-08-19T05:51:10;21.80;99.90
27795;DHT22;15176;50.844;4.412;2022-08-19T05:53:36;21.60;99.90
27795;DHT22;15176;50.844;4.412;2022-08-19T05:56:11;21.60;99.90
27795;DHT22;15176;50.844;4.412;2022-08-19T05:58:38;21.50;99.90
27795;DHT22;15176;50.844;4.412;2022-08-19T06:01:09;21.70;99.90
27795;DHT22;15176;50.844;4.412;2022-08-19T06:03:35;21.80;99.90
27795;DHT22;15176;50.844;4.412;2022-08-19T06:06:03;21.90;99.90
27795;DHT22;15176;50.844;4.412;2022-08-19T06:08:29;21.80;99.90
27795;DHT22;15176;50.844;4.412;2022-08-19T06:10:55;21.60;99.90
27795;DHT22;15176;50.844;4.412;2022-08-19T06:13:22;21.50;99.90
27795;DHT22;15176;50.844;4.412;2022-08-19T06:15:48;21.40;99.90
27795;DHT22;15176;50.844;4.412;2022-08-19T06:18:14;20.90;99.90
27795;DHT22;15176;50.844;4.412;2022-08-19T06:20:41;20.80;99.90
27795;DHT22;15176;50.844;4.412;2022-08-19T06:23:07;21.20;99.90
27795;DHT22;15176;50.844;4.412;2022-08-19T06:25:35;21.30;99.90
27795;DHT22;15176;50.844;4.412;2022-08-19T06:28:02;21.20;99.90
27795;DHT22;15176;50.844;4.412;2022-08-19T06:30:28;21.30;99.90
27795;DHT22;15176;50.844;4.412;2022-08-19T06:32:53;21.30;99.90
27795;DHT22;15176;50.844;4.412;2022-08-19T06:35:19;21.50;99.90
27795;DHT22;15176;50.844;4.412;2022-08-19T06:37:45;21.60;99.90
27795;DHT22;15176;50.844;4.412;2022-08-19T06:40:11;21.90;99.90
27795;DHT22;15176;50.844;4.412;2022-08-19T06:42:38;21.70;99.90
27795;DHT22;15176;50.844;4.412;2022-08-19T06:45:05;21.80;99.90
27795;DHT22;15176;50.844;4.412;2022-08-19T06:47:31;21.80;99.90
27795;DHT22;15176;50.844;4.412;2022-08-19T06:49:59;21.80;99.90
27795;DHT22;15176;50.844;4.412;2022-08-19T06:52:32;22.10;99.90
27795;DHT22;15176;50.844;4.412;2022-08-19T06:54:59;22.00;99.90
27795;DHT22;15176;50.844;4.412;2022-08-19T06:57:25;22.20;99.90
27795;DHT22;15176;50.844;4.412;2022-08-19T06:59:51;22.30;99.90
27795;DHT22;15176;50.844;4.412;2022-08-19T07:02:18;22.40;99.90
27795;DHT22;15176;50.844;4.412;2022-08-19T07:04:44;22.40;99.90
27795;DHT22;15176;50.844;4.412;2022-08-19T07:07:11;22.10;99.90
27795;DHT22;15176;50.844;4.412;2022-08-19T07:09:41;21.80;99.90
27795;DHT22;15176;50.844;4.412;2022-08-19T07:12:10;21.90;99.90
27795;DHT22;15176;50.844;4.412;2022-08-19T07:14:37;21.70;99.90
27795;DHT22;15176;50.844;4.412;2022-08-19T07:17:10;21.50;99.90
27795;DHT22;15176;50.844;4.412;2022-08-19T07:19:38;21.40;99.90
27795;DHT22;15176;50.844;4.412;2022-08-19T07:22:06;21.70;99.90
27795;DHT22;15176;50.844;4.412;2022-08-19T07:24:32;21.70;99.90
27795;DHT22;15176;50.844;4.412;2022-08-19T07:27:00;21.80;99.90
27795;DHT22;15176;50.844;4.412;2022-08-19T07:29:30;21.80;99.90
27795;DHT22;15176;50.844;4.412;2022-08-19T07:31:56;22.00;99.90
27795;DHT22;15176;50.844;4.412;2022-08-19T07:34:25;22.10;99.90
27795;DHT22;15176;50.844;4.412;2022-08-19T07:36:52;22.20;99.90
27795;DHT22;15176;50.844;4.412;2022-08-19T07:39:30;22.30;99.90
27795;DHT22;15176;50.844;4.412;2022-08-19T07:41:57;22.60;99.90
27795;DHT22;15176;50.844;4.412;2022-08-19T07:44:23;22.40;99.90
27795;DHT22;15176;50.844;4.412;2022-08-19T07:46:54;22.10;99.90
27795;DHT22;15176;50.844;4.412;2022-08-19T07:49:21;22.40;99.90
27795;DHT22;15176;50.844;4.412;2022-08-19T07:51:52;22.50;99.90
27795;DHT22;15176;50.844;4.412;2022-08-19T07:54:19;22.30;99.90
27795;DHT22;15176;50.844;4.412;2022-08-19T07:56:45;22.20;99.90
27795;DHT22;15176;50.844;4.412;2022-08-19T07:59:11;22.40;99.90
27795;DHT22;15176;50.844;4.412;2022-08-19T08:01:38;22.70;99.90
27795;DHT22;15176;50.844;4.412;2022-08-19T08:04:06;23.00;99.90
27795;DHT22;15176;50.844;4.412;2022-08-19T08:06:51;22.90;99.90
27795;DHT22;15176;50.844;4.412;2022-08-19T08:09:39;23.10;99.90
27795;DHT22;15176;50.844;4.412;2022-08-19T08:12:17;23.30;99.90
27795;DHT22;15176;50.844;4.412;2022-08-19T08:14:47;23.20;99.90
27795;DHT22;15176;50.844;4.412;2022-08-19T08:17:19;23.30;99.90
27795;DHT22;15176;50.844;4.412;2022-08-19T08:19:46;23.40;99.90
27795;DHT22;15176;50.844;4.412;2022-08-19T08:22:15;23.30;99.90
27795;DHT22;15176;50.844;4.412;2022-08-19T08:25:08;23.30;99.90
27795;DHT22;15176;50.844;4.412;2022-08-19T08:27:39;23.40;99.90
27795;DHT22;15176;50.844;4.412;2022-08-19T08:30:07;23.40;99.90
27795;DHT22;15176;50.844;4.412;2022-08-19T08:32:38;23.20;99.90
27795;DHT22;15176;50.844;4.412;2022-08-19T08:35:09;23.20;99.90
27795;DHT22;15176;50.844;4.412;2022-08-19T08:37:35;23.10;99.90
27795;DHT22;15176;50.844;4.412;2022-08-19T08:45:59;23.30;99.90
27795;DHT22;15176;50.844;4.412;2022-08-19T08:48:49;23.60;99.90
27795;DHT22;15176;50.844;4.412;2022-08-19T08:51:22;23.70;99.90
27795;DHT22;15176;50.844;4.412;2022-08-19T08:53:51;23.50;99.90
27795;DHT22;15176;50.844;4.412;2022-08-19T08:56:17;23.50;99.90
27795;DHT22;15176;50.844;4.412;2022-08-19T08:59:03;23.50;99.90
27795;DHT22;15176;50.844;4.412;2022-08-19T09:01:33;23.60;99.90
27795;DHT22;15176;50.844;4.412;2022-08-19T09:03:59;23.90;99.90
27795;DHT22;15176;50.844;4.412;2022-08-19T09:06:44;23.60;99.90
27795;DHT22;15176;50.844;4.412;2022-08-19T09:09:24;23.30;99.90
27795;DHT22;15176;50.844;4.412;2022-08-19T09:12:32;23.30;99.90
27795;DHT22;15176;50.844;4.412;2022-08-19T09:15:09;23.30;99.90
27795;DHT22;15176;50.844;4.412;2022-08-19T09:17:36;23.10;99.90
27795;DHT22;15176;50.844;4.412;2022-08-19T09:20:14;23.10;99.90
27795;DHT22;15176;50.844;4.412;2022-08-19T09:22:41;23.20;99.90
27795;DHT22;15176;50.844;4.412;2022-08-19T09:25:11;23.20;99.90
27795;DHT22;15176;50.844;4.412;2022-08-19T09:27:38;23.60;99.90
27795;DHT22;15176;50.844;4.412;2022-08-19T09:30:06;23.40;99.90
27795;DHT22;15176;50.844;4.412;2022-08-19T09:32:33;23.70;99.90
27795;DHT22;15176;50.844;4.412;2022-08-19T09:34:59;23.90;99.90
27795;DHT22;15176;50.844;4.412;2022-08-19T09:37:26;24.00;99.90
27795;DHT22;15176;50.844;4.412;2022-08-19T09:39:52;24.00;99.90
27795;DHT22;15176;50.844;4.412;2022-08-19T09:42:18;23.90;99.90
27795;DHT22;15176;50.844;4.412;2022-08-19T09:44:44;23.70;99.90
27795;DHT22;15176;50.844;4.412;2022-08-19T09:47:11;23.80;99.90
27795;DHT22;15176;50.844;4.412;2022-08-19T09:49:38;23.60;99.90
27795;DHT22;15176;50.844;4.412;2022-08-19T09:52:05;23.80;99.90
27795;DHT22;15176;50.844;4.412;2022-08-19T09:54:33;23.90;99.90
27795;DHT22;15176;50.844;4.412;2022-08-19T09:56:59;24.00;99.90
27795;DHT22;15176;50.844;4.412;2022-08-19T09:59:28;24.00;99.90
27795;DHT22;15176;50.844;4.412;2022-08-19T10:01:54;23.80;99.90
27795;DHT22;15176;50.844;4.412;2022-08-19T10:04:20;23.70;99.90
27795;DHT22;15176;50.844;4.412;2022-08-19T10:06:47;23.80;99.90
27795;DHT22;15176;50.844;4.412;2022-08-19T10:09:15;24.00;99.90
27795;DHT22;15176;50.844;4.412;2022-08-19T10:11:43;24.10;99.90
27795;DHT22;15176;50.844;4.412;2022-08-19T10:14:15;24.10;99.90
27795;DHT22;15176;50.844;4.412;2022-08-19T10:16:42;23.80;99.90
27795;DHT22;15176;50.844;4.412;2022-08-19T10:19:08;24.00;99.90
27795;DHT22;15176;50.844;4.412;2022-08-19T10:21:35;24.10;99.90
27795;DHT22;15176;50.844;4.412;2022-08-19T10:24:03;24.20;99.90
27795;DHT22;15176;50.844;4.412;2022-08-19T10:26:34;24.30;99.90
27795;DHT22;15176;50.844;4.412;2022-08-19T10:29:02;24.10;99.90
27795;DHT22;15176;50.844;4.412;2022-08-19T10:31:31;24.10;99.90
27795;DHT22;15176;50.844;4.412;2022-08-19T10:33:57;23.90;99.90
27795;DHT22;15176;50.844;4.412;2022-08-19T10:36:27;24.00;99.90
27795;DHT22;15176;50.844;4.412;2022-08-19T10:38:57;24.00;99.90
27795;DHT22;15176;50.844;4.412;2022-08-19T10:41:27;24.30;99.90
27795;DHT22;15176;50.844;4.412;2022-08-19T10:44:01;24.30;99.90
27795;DHT22;15176;50.844;4.412;2022-08-19T10:46:28;24.30;99.90
27795;DHT22;15176;50.844;4.412;2022-08-19T10:48:58;24.20;99.90
27795;DHT22;15176;50.844;4.412;2022-08-19T10:51:24;24.30;99.90
27795;DHT22;15176;50.844;4.412;2022-08-19T10:54:09;24.60;99.90
27795;DHT22;15176;50.844;4.412;2022-08-19T10:56:35;24.50;99.90
27795;DHT22;15176;50.844;4.412;2022-08-19T10:59:18;24.70;99.90
27795;DHT22;15176;50.844;4.412;2022-08-19T11:01:45;24.90;99.90
27795;DHT22;15176;50.844;4.412;2022-08-19T11:04:12;24.70;99.90
27795;DHT22;15176;50.844;4.412;2022-08-19T11:06:40;24.60;99.90
27795;DHT22;15176;50.844;4.412;2022-08-19T11:09:07;24.80;99.90
27795;DHT22;15176;50.844;4.412;2022-08-19T11:11:33;24.50;99.90
27795;DHT22;15176;50.844;4.412;2022-08-19T11:14:04;24.60;99.90
27795;DHT22;15176;50.844;4.412;2022-08-19T11:16:30;24.50;99.90
27795;DHT22;15176;50.844;4.412;2022-08-19T11:18:58;24.40;99.90
27795;DHT22;15176;50.844;4.412;2022-08-19T11:21:31;24.30;99.90
27795;DHT22;15176;50.844;4.412;2022-08-19T11:23:59;24.30;99.90
27795;DHT22;15176;50.844;4.412;2022-08-19T11:26:26;24.50;99.90
27795;DHT22;15176;50.844;4.412;2022-08-19T11:28:52;24.40;99.90
27795;DHT22;15176;50.844;4.412;2022-08-19T11:31:24;24.50;99.90
27795;DHT22;15176;50.844;4.412;2022-08-19T11:33:50;24.50;99.90
27795;DHT22;15176;50.844;4.412;2022-08-19T11:36:17;24.40;99.90
27795;DHT22;15176;50.844;4.412;2022-08-19T11:38:45;24.00;99.90
27795;DHT22;15176;50.844;4.412;2022-08-19T11:41:11;24.00;99.90
27795;DHT22;15176;50.844;4.412;2022-08-19T11:43:37;24.10;99.90
27795;DHT22;15176;50.844;4.412;2022-08-19T11:46:09;24.30;99.90
27795;DHT22;15176;50.844;4.412;2022-08-19T11:48:36;24.30;99.90
27795;DHT22;15176;50.844;4.412;2022-08-19T11:51:08;24.60;99.90
27795;DHT22;15176;50.844;4.412;2022-08-19T11:53:35;24.60;99.90
27795;DHT22;15176;50.844;4.412;2022-08-19T11:56:02;24.00;99.90
27795;DHT22;15176;50.844;4.412;2022-08-19T11:58:28;24.40;99.90
27795;DHT22;15176;50.844;4.412;2022-08-19T12:00:54;24.70;99.90
27795;DHT22;15176;50.844;4.412;2022-08-19T12:03:21;24.40;99.90
27795;DHT22;15176;50.844;4.412;2022-08-19T12:05:47;24.50;99.90
27795;DHT22;15176;50.844;4.412;2022-08-19T12:08:13;24.70;99.90
27795;DHT22;15176;50.844;4.412;2022-08-19T12:10:39;25.10;99.90
27795;DHT22;15176;50.844;4.412;2022-08-19T12:13:08;25.50;99.90
27795;DHT22;15176;50.844;4.412;2022-08-19T12:15:38;25.80;99.90
27795;DHT22;15176;50.844;4.412;2022-08-19T12:18:07;25.90;99.90
27795;DHT22;15176;50.844;4.412;2022-08-19T12:20:37;25.90;99.90
27795;DHT22;15176;50.844;4.412;2022-08-19T12:23:05;26.10;99.90
27795;DHT22;15176;50.844;4.412;2022-08-19T12:25:31;26.30;99.90
27795;DHT22;15176;50.844;4.412;2022-08-19T12:27:58;26.60;99.90
27795;DHT22;15176;50.844;4.412;2022-08-19T12:30:25;26.70;99.90
27795;DHT22;15176;50.844;4.412;2022-08-19T12:32:51;26.90;99.90
27795;DHT22;15176;50.844;4.412;2022-08-19T12:35:17;26.60;99.90
27795;DHT22;15176;50.844;4.412;2022-08-19T12:37:47;26.80;99.90
27795;DHT22;15176;50.844;4.412;2022-08-19T12:40:15;27.20;99.90
27795;DHT22;15176;50.844;4.412;2022-08-19T12:42:43;26.80;99.90
27795;DHT22;15176;50.844;4.412;2022-08-19T12:45:13;26.60;99.90
27795;DHT22;15176;50.844;4.412;2022-08-19T12:47:39;26.50;99.90
27795;DHT22;15176;50.844;4.412;2022-08-19T12:50:06;26.80;99.90
27795;DHT22;15176;50.844;4.412;2022-08-19T12:52:35;26.50;99.90
27795;DHT22;15176;50.844;4.412;2022-08-19T12:55:04;26.30;99.90
27795;DHT22;15176;50.844;4.412;2022-08-19T12:57:30;26.40;99.90
27795;DHT22;15176;50.844;4.412;2022-08-19T13:00:11;26.60;99.90
27795;DHT22;15176;50.844;4.412;2022-08-19T13:02:39;26.60;99.90
27795;DHT22;15176;50.844;4.412;2022-08-19T13:05:08;26.60;99.90
27795;DHT22;15176;50.844;4.412;2022-08-19T13:07:34;26.90;99.90
27795;DHT22;15176;50.844;4.412;2022-08-19T13:10:00;27.00;99.90
27795;DHT22;15176;50.844;4.412;2022-08-19T13:12:26;27.00;99.90
27795;DHT22;15176;50.844;4.412;2022-08-19T13:14:53;27.30;99.90
27795;DHT22;15176;50.844;4.412;2022-08-19T13:17:20;27.70;99.90
27795;DHT22;15176;50.844;4.412;2022-08-19T13:19:45;27.70;99.90
27795;DHT22;15176;50.844;4.412;2022-08-19T13:22:12;27.90;99.90
27795;DHT22;15176;50.844;4.412;2022-08-19T13:24:37;28.00;99.90
27795;DHT22;15176;50.844;4.412;2022-08-19T13:27:03;28.00;99.90
27795;DHT22;15176;50.844;4.412;2022-08-19T13:29:29;27.80;99.90
27795;DHT22;15176;50.844;4.412;2022-08-19T13:32:13;27.80;99.90
27795;DHT22;15176;50.844;4.412;2022-08-19T13:34:57;27.60;99.90
27795;DHT22;15176;50.844;4.412;2022-08-19T13:37:23;27.40;99.90
27795;DHT22;15176;50.844;4.412;2022-08-19T13:40:10;27.30;99.90
27795;DHT22;15176;50.844;4.412;2022-08-19T13:42:42;27.20;99.90
27795;DHT22;15176;50.844;4.412;2022-08-19T13:45:10;27.20;99.90
27795;DHT22;15176;50.844;4.412;2022-08-19T13:47:36;27.50;99.90
27795;DHT22;15176;50.844;4.412;2022-08-19T13:50:11;27.50;99.90
27795;DHT22;15176;50.844;4.412;2022-08-19T13:52:38;27.40;99.90
27795;DHT22;15176;50.844;4.412;2022-08-19T13:55:05;27.60;99.90
27795;DHT22;15176;50.844;4.412;2022-08-19T13:57:31;27.70;99.90
27795;DHT22;15176;50.844;4.412;2022-08-19T13:59:58;27.70;99.90
27795;DHT22;15176;50.844;4.412;2022-08-19T14:02:25;27.70;99.90
27795;DHT22;15176;50.844;4.412;2022-08-19T14:04:52;27.30;99.90
27795;DHT22;15176;50.844;4.412;2022-08-19T14:07:17;27.40;99.90
27795;DHT22;15176;50.844;4.412;2022-08-19T14:09:43;27.50;99.90
27795;DHT22;15176;50.844;4.412;2022-08-19T14:12:08;27.30;99.90
27795;DHT22;15176;50.844;4.412;2022-08-19T14:14:38;26.90;99.90
27795;DHT22;15176;50.844;4.412;2022-08-19T14:17:07;26.60;99.90
27795;DHT22;15176;50.844;4.412;2022-08-19T14:19:33;26.20;99.90
27795;DHT22;15176;50.844;4.412;2022-08-19T14:21:59;25.80;99.90
27795;DHT22;15176;50.844;4.412;2022-08-19T14:24:24;25.40;99.90
27795;DHT22;15176;50.844;4.412;2022-08-19T14:26:50;25.30;99.90
27795;DHT22;15176;50.844;4.412;2022-08-19T14:29:16;25.30;99.90
27795;DHT22;15176;50.844;4.412;2022-08-19T14:31:42;25.60;99.90
27795;DHT22;15176;50.844;4.412;2022-08-19T14:34:09;25.60;99.90
27795;DHT22;15176;50.844;4.412;2022-08-19T14:36:37;25.50;99.90
27795;DHT22;15176;50.844;4.412;2022-08-19T14:39:03;25.70;99.90
27795;DHT22;15176;50.844;4.412;2022-08-19T14:41:29;25.30;99.90
27795;DHT22;15176;50.844;4.412;2022-08-19T14:43:56;25.30;99.90
27795;DHT22;15176;50.844;4.412;2022-08-19T14:46:27;25.20;99.90
27795;DHT22;15176;50.844;4.412;2022-08-19T14:48:53;25.10;99.90
27795;DHT22;15176;50.844;4.412;2022-08-19T14:51:21;25.10;99.90
27795;DHT22;15176;50.844;4.412;2022-08-19T14:53:48;24.90;99.90
27795;DHT22;15176;50.844;4.412;2022-08-19T14:56:22;24.60;99.90
27795;DHT22;15176;50.844;4.412;2022-08-19T14:58:49;24.50;99.90
27795;DHT22;15176;50.844;4.412;2022-08-19T15:01:19;24.70;99.90
27795;DHT22;15176;50.844;4.412;2022-08-19T15:03:47;24.70;99.90
27795;DHT22;15176;50.844;4.412;2022-08-19T15:06:13;25.10;99.90
27795;DHT22;15176;50.844;4.412;2022-08-19T15:08:40;25.30;99.90
27795;DHT22;15176;50.844;4.412;2022-08-19T15:11:12;25.10;99.90
27795;DHT22;15176;50.844;4.412;2022-08-19T15:13:40;25.20;99.90
27795;DHT22;15176;50.844;4.412;2022-08-19T15:16:06;25.30;99.90
27795;DHT22;15176;50.844;4.412;2022-08-19T15:18:33;25.30;99.90
27795;DHT22;15176;50.844;4.412;2022-08-19T15:21:00;25.60;99.90
27795;DHT22;15176;50.844;4.412;2022-08-19T15:23:27;25.80;99.90
27795;DHT22;15176;50.844;4.412;2022-08-19T15:25:53;25.90;99.90
27795;DHT22;15176;50.844;4.412;2022-08-19T15:28:21;25.90;99.90
27795;DHT22;15176;50.844;4.412;2022-08-19T15:30:48;25.80;99.90
27795;DHT22;15176;50.844;4.412;2022-08-19T15:33:14;26.10;99.90
27795;DHT22;15176;50.844;4.412;2022-08-19T15:35:41;26.00;99.90
27795;DHT22;15176;50.844;4.412;2022-08-19T15:38:07;26.10;99.90
27795;DHT22;15176;50.844;4.412;2022-08-19T15:40:33;26.10;99.90
27795;DHT22;15176;50.844;4.412;2022-08-19T15:42:59;25.70;99.90
27795;DHT22;15176;50.844;4.412;2022-08-19T15:45:26;25.50;99.90
27795;DHT22;15176;50.844;4.412;2022-08-19T15:48:01;25.80;99.90